»·PEaware :: N6262K KSBP-KTOA

N6262K :: KSBP-KTOA

FLIGHT INFORMATION

Flight Status: Arrived
Operator: Privately registered:
United States
More flights under this callsign
Pilot: Judson K. (15650)
Aircraft: SOCATA TBM-900
(TBM9)
More flights by this aircraft type
Origin: KSBP San Luis Co Regl
United States
Destination: KTOA Zamperini
United States
More flights between these airports :: More routes between these airports
Route: RZS VTU V208 SXC SLI
File this flight plan on PilotEdge
Remarks:
Altitude:
(Current/Filed)
16,000ft
Speed:
(Current/Filed)
250kts
Departed: 05-Nov-19 08:53 PM
Arrived: 05-Nov-19 09:43 PM
Distance/Time
Traveled:
143nm/0:49
Distance/Time
To Go:
Arrived

Flight Plot

Page will automatically refresh every two minutes.


Map Options




Map Legend


Flown Route
Filed Route
Departure Airport
Arrival Airport
Navaid (VOR, NDB)
Fix

Horizontal Profiles

Position Reports

Time Latitude Longitude Heading Altitude Ground
Speed
05-Nov-19 20:20 35.238362 -120.645847 269 215ft 0kts
05-Nov-19 20:22 35.238362 -120.645847 269 215ft 0kts
05-Nov-19 20:23 35.238362 -120.645847 269 215ft 0kts
05-Nov-19 20:24 35.238362 -120.645847 269 215ft 0kts
05-Nov-19 20:25 35.238362 -120.645847 269 215ft 0kts
05-Nov-19 20:26 35.238362 -120.645847 269 215ft 0kts
05-Nov-19 20:27 35.238362 -120.645847 269 215ft 0kts
05-Nov-19 20:28 35.238362 -120.645847 269 215ft 0kts
05-Nov-19 20:29 35.238362 -120.645847 269 215ft 0kts
05-Nov-19 20:37 35.238228 -120.646202 270 215ft 0kts
05-Nov-19 20:38 35.238228 -120.646202 270 215ft 0kts
05-Nov-19 20:39 35.238228 -120.646202 270 215ft 0kts
05-Nov-19 20:40 35.238228 -120.646202 270 215ft 0kts
05-Nov-19 20:41 35.238228 -120.646202 270 215ft 0kts
05-Nov-19 20:41 35.238228 -120.646202 270 215ft 0kts
05-Nov-19 20:43 35.238228 -120.646202 270 215ft 0kts
05-Nov-19 20:43 35.238228 -120.646202 271 215ft 0kts
05-Nov-19 20:44 35.238228 -120.646202 270 215ft 0kts
05-Nov-19 20:46 35.238228 -120.646202 270 215ft 0kts
05-Nov-19 20:46 35.238463 -120.646464 350 215ft 12kts
05-Nov-19 20:47 35.238854 -120.646419 17 215ft 3kts
05-Nov-19 20:48 35.237814 -120.641581 91 215ft 25kts
05-Nov-19 20:49 35.234283 -120.633642 124 215ft 24kts
05-Nov-19 20:50 35.233184 -120.632338 214 215ft 0kts
05-Nov-19 20:51 35.233032 -120.632468 214 215ft 8kts
05-Nov-19 20:52 35.245292 -120.656238 300 875ft 125kts
05-Nov-19 20:53 35.263744 -120.693710 302 2756ft 130kts
05-Nov-19 20:54 35.282739 -120.731307 302 4613ft 132kts
05-Nov-19 20:55 35.304209 -120.772732 271 5003ft 161kts
05-Nov-19 20:56 35.269653 -120.783629 162 7697ft 152kts
05-Nov-19 20:57 35.216406 -120.764261 162 8011ft 240kts
05-Nov-19 20:58 35.150916 -120.735039 129 8189ft 253kts
05-Nov-19 20:59 35.117374 -120.660482 120 8698ft 251kts
05-Nov-19 21:00 35.077048 -120.590058 125 8987ft 257kts
05-Nov-19 21:01 35.031885 -120.520437 127 8990ft 262kts
05-Nov-19 21:02 34.984987 -120.451739 128 8991ft 263kts
05-Nov-19 21:03 34.937591 -120.383572 128 8991ft 263kts
05-Nov-19 21:04 34.889784 -120.315689 128 8990ft 263kts
05-Nov-19 21:05 34.842126 -120.247916 128 8990ft 262kts
05-Nov-19 21:06 34.794814 -120.180274 128 8990ft 262kts
05-Nov-19 21:07 34.747466 -120.112466 127 8990ft 262kts
05-Nov-19 21:08 34.700342 -120.044848 127 8990ft 262kts
05-Nov-19 21:09 34.653175 -119.976840 127 8988ft 262kts
05-Nov-19 21:10 34.606131 -119.908934 127 8974ft 262kts
05-Nov-19 21:11 34.559216 -119.841187 127 8962ft 262kts
05-Nov-19 21:12 34.511526 -119.773777 128 8948ft 262kts
05-Nov-19 21:13 34.472127 -119.701025 118 8952ft 259kts
05-Nov-19 21:14 34.436037 -119.625085 116 8945ft 260kts
05-Nov-19 21:15 34.397947 -119.550173 120 8944ft 261kts
05-Nov-19 21:16 34.357244 -119.477107 121 8947ft 261kts
05-Nov-19 21:17 34.316215 -119.404657 121 8951ft 261kts
05-Nov-19 21:18 34.275353 -119.332598 122 8954ft 261kts
05-Nov-19 21:19 34.234290 -119.259666 121 8954ft 261kts
05-Nov-19 21:20 34.193519 -119.186861 121 8952ft 261kts
05-Nov-19 21:21 34.152820 -119.114261 121 8952ft 261kts
05-Nov-19 21:22 34.105276 -119.049243 154 8962ft 267kts
05-Nov-19 21:23 34.031412 -119.039394 172 8957ft 270kts
05-Nov-19 21:24 33.956272 -119.030965 173 8955ft 271kts
05-Nov-19 21:25 33.881091 -119.022989 173 8952ft 271kts
05-Nov-19 21:26 33.806144 -119.015265 173 8952ft 270kts
05-Nov-19 21:27 33.754570 -118.957841 125 8952ft 262kts
05-Nov-19 21:28 33.721007 -118.882942 102 8952ft 246kts
05-Nov-19 21:29 33.704759 -118.803316 101 7123ft 247kts
05-Nov-19 21:30 33.688822 -118.723400 101 5422ft 245kts
05-Nov-19 21:31 33.673415 -118.643945 101 3981ft 242kts
05-Nov-19 21:32 33.658246 -118.562897 101 3974ft 250kts
05-Nov-19 21:33 33.643036 -118.480759 101 3978ft 252kts
05-Nov-19 21:34 33.627790 -118.398635 101 3982ft 252kts
05-Nov-19 21:35 33.612612 -118.317094 101 3960ft 250kts
05-Nov-19 21:36 33.652559 -118.266191 21 2974ft 225kts
05-Nov-19 21:37 33.703443 -118.244233 359 2813ft 166kts
05-Nov-19 21:38 33.739083 -118.266001 327 2341ft 127kts
05-Nov-19 21:39 33.766323 -118.288864 323 2033ft 96kts
05-Nov-19 21:40 33.783970 -118.309881 309 928ft 101kts
05-Nov-19 21:41 33.799292 -118.332494 308 175ft 78kts
05-Nov-19 21:42 33.807397 -118.346196 206 106ft 4kts
05-Nov-19 21:43 33.804877 -118.344852 128 106ft 26kts
05-Nov-19 21:44 33.802753 -118.342900 297 106ft 10kts
05-Nov-19 21:45 33.803090 -118.343589 26 106ft 0kts
05-Nov-19 21:46 33.803090 -118.343589 26 106ft 0kts
05-Nov-19 21:47 33.803090 -118.343589 26 106ft 0kts
05-Nov-19 21:48 33.803070 -118.343599 24 106ft 0kts
05-Nov-19 21:49 33.803070 -118.343599 24 106ft 0kts

Navigation Log

Ident Type
Flight plan parsing failed, navigation log unavailable